createdAt,value
2019-01-26T00:01:26.576Z,60.52
2019-01-26T00:05:31.765Z,60.60
2019-01-26T00:09:36.867Z,58.78
2019-01-26T00:13:41.947Z,59.53
2019-01-26T00:17:47.036Z,61.18
2019-01-26T00:21:52.128Z,60.17
2019-01-26T00:25:57.199Z,56.00
2019-01-26T00:30:02.321Z,63.17
2019-01-26T00:34:08.608Z,66.20
2019-01-26T00:38:14.684Z,60.35
2019-01-26T00:42:21.087Z,69.17
2019-01-26T00:46:28.561Z,63.33
2019-01-26T00:50:33.965Z,70.00
2019-01-26T00:54:39.034Z,69.20
2019-01-26T00:58:45.178Z,69.07
2019-01-26T01:02:50.279Z,71.95
2019-01-26T01:06:55.379Z,69.07
2019-01-26T01:11:00.447Z,76.42
2019-01-26T01:15:08.149Z,77.78
2019-01-26T01:19:13.261Z,71.12
2019-01-26T01:23:18.317Z,69.53
2019-01-26T01:27:23.419Z,78.83
2019-01-26T01:31:28.486Z,70.10
2019-01-26T01:35:33.603Z,66.00
2019-01-26T01:39:38.691Z,74.07
2019-01-26T01:43:43.788Z,74.10
2019-01-26T01:47:48.994Z,70.28
2019-01-26T01:51:54.176Z,79.00
2019-01-26T01:55:59.284Z,76.37
2019-01-26T02:00:07.471Z,68.52
2019-01-26T02:04:12.568Z,78.67
2019-01-26T02:08:17.712Z,80.15
2019-01-26T02:12:22.779Z,75.60
2019-01-26T02:16:27.891Z,73.35
2019-01-26T02:20:33.971Z,83.65
2019-01-26T02:24:39.068Z,82.20
2019-01-26T02:28:44.196Z,79.70
2019-01-26T02:32:49.271Z,77.97
2019-01-26T02:36:54.442Z,87.62
2019-01-26T02:40:59.512Z,91.60
2019-01-26T02:45:06.431Z,82.02
2019-01-26T02:49:11.501Z,82.47
2019-01-26T02:53:16.609Z,88.00
2019-01-26T02:57:21.718Z,83.62
2019-01-26T03:01:26.788Z,87.00
2019-01-26T03:05:31.888Z,95.75
2019-01-26T03:09:36.944Z,84.35
2019-01-26T03:13:42.059Z,92.88
2019-01-26T03:17:47.146Z,90.22
2019-01-26T03:21:52.262Z,94.47
2019-01-26T03:25:57.346Z,88.87
2019-01-26T03:30:02.423Z,92.33
2019-01-26T03:34:07.552Z,92.27
2019-01-26T03:38:12.622Z,86.35
2019-01-26T03:42:17.745Z,91.90
2019-01-26T03:46:22.816Z,93.15
2019-01-26T03:50:27.919Z,93.50
2019-01-26T03:54:33.005Z,84.52
2019-01-26T03:58:38.171Z,90.28
2019-01-26T04:02:43.232Z,90.65
2019-01-26T04:06:48.358Z,91.85
2019-01-26T04:10:53.423Z,91.00
2019-01-26T04:14:58.532Z,88.33
2019-01-26T04:19:03.655Z,84.10
2019-01-26T04:23:08.778Z,85.30
2019-01-26T04:27:13.854Z,91.28
2019-01-26T04:31:18.962Z,80.20
2019-01-26T04:35:24.038Z,87.20
2019-01-26T04:39:29.135Z,92.08
2019-01-26T04:43:34.249Z,87.00
2019-01-26T04:47:39.301Z,81.32
2019-01-26T04:51:44.427Z,90.90
2019-01-26T04:55:49.498Z,85.67
2019-01-26T04:59:54.659Z,78.75
2019-01-26T05:03:59.726Z,87.65
2019-01-26T05:08:04.898Z,90.22
2019-01-26T05:12:09.919Z,90.22
2019-01-26T05:16:15.012Z,93.30
2019-01-26T05:20:24.884Z,93.47
2019-01-26T05:24:29.983Z,87.67
2019-01-26T05:28:35.068Z,84.28
2019-01-26T05:32:40.158Z,82.85
2019-01-26T05:36:45.223Z,95.97
2019-01-26T05:40:50.315Z,87.53
2019-01-26T05:44:55.440Z,93.87
2019-01-26T05:49:00.512Z,82.97
2019-01-26T05:53:05.731Z,85.92
2019-01-26T05:57:10.831Z,90.62
2019-01-26T06:01:15.908Z,84.30
2019-01-26T06:05:21.013Z,88.25
2019-01-26T06:09:26.105Z,88.58
2019-01-26T06:13:31.163Z,95.77
2019-01-26T06:17:36.291Z,93.60
2019-01-26T06:21:41.360Z,89.45
2019-01-26T06:25:46.473Z,91.40
2019-01-26T06:29:51.526Z,93.25
2019-01-26T06:33:56.779Z,92.00
2019-01-26T06:38:01.870Z,92.17
2019-01-26T06:42:06.936Z,87.22
2019-01-26T06:46:12.062Z,86.92
2019-01-26T06:50:23.124Z,89.80
2019-01-26T06:54:28.227Z,86.97
2019-01-26T06:58:33.326Z,94.42
2019-01-26T07:02:38.408Z,91.70
2019-01-26T07:06:46.075Z,88.72
2019-01-26T07:10:51.199Z,92.85
2019-01-26T07:14:56.270Z,89.70
2019-01-26T07:19:01.379Z,93.55
2019-01-26T07:23:06.482Z,93.40
2019-01-26T07:27:11.655Z,98.78
2019-01-26T07:31:16.748Z,103.90
2019-01-26T07:35:22.120Z,100.78
2019-01-26T07:39:27.217Z,98.05
2019-01-26T07:43:32.308Z,110.52
2019-01-26T07:47:37.383Z,99.22
2019-01-26T07:51:42.499Z,101.12
2019-01-26T07:55:47.597Z,105.30
2019-01-26T07:59:52.690Z,105.72
2019-01-26T08:03:57.863Z,114.50
2019-01-26T08:08:02.981Z,122.17
2019-01-26T08:12:08.043Z,104.75
2019-01-26T08:16:13.138Z,97.37
2019-01-26T08:20:20.248Z,93.25
2019-01-26T08:24:25.417Z,94.07
2019-01-26T08:28:30.518Z,91.35
2019-01-26T08:32:35.599Z,94.37
2019-01-26T08:36:40.734Z,97.82
2019-01-26T08:40:45.830Z,88.40
2019-01-26T08:44:50.939Z,96.53
2019-01-26T08:48:56.027Z,97.50
2019-01-26T08:53:01.143Z,82.72
2019-01-26T08:57:06.241Z,89.25
2019-01-26T09:01:12.331Z,88.55
2019-01-26T09:05:18.082Z,89.47
2019-01-26T09:09:23.209Z,88.82
2019-01-26T09:13:28.291Z,83.25
2019-01-26T09:17:33.404Z,90.03
2019-01-26T09:21:38.506Z,85.28
2019-01-26T09:25:43.806Z,82.62
2019-01-26T09:29:49.039Z,90.75
2019-01-26T09:33:54.130Z,92.85
2019-01-26T09:38:00.382Z,96.72
2019-01-26T09:42:06.135Z,90.60
2019-01-26T09:46:11.587Z,83.80
2019-01-26T09:50:17.011Z,95.80
2019-01-26T09:54:22.227Z,98.72
2019-01-26T09:58:27.540Z,99.97
2019-01-26T10:02:32.866Z,98.33
2019-01-26T10:06:38.032Z,90.57
2019-01-26T10:10:43.483Z,90.95
2019-01-26T10:14:49.059Z,94.03
2019-01-26T10:18:55.517Z,94.65
2019-01-26T10:23:00.862Z,103.32
2019-01-26T10:27:06.217Z,98.37
2019-01-26T10:31:11.773Z,96.45
2019-01-26T10:35:17.123Z,99.13
2019-01-26T10:39:22.579Z,98.75
2019-01-26T10:43:47.586Z,93.58
2019-01-26T10:47:53.687Z,92.88
2019-01-26T10:52:00.040Z,93.97
2019-01-26T10:56:06.401Z,90.55
2019-01-26T11:00:15.031Z,88.87
2019-01-26T11:04:22.937Z,99.17
2019-01-26T11:08:28.610Z,89.62
2019-01-26T11:12:34.156Z,96.90
2019-01-26T11:16:39.611Z,88.47
2019-01-26T11:20:45.175Z,90.45
2019-01-26T11:24:50.720Z,95.95
2019-01-26T11:28:56.299Z,92.17
2019-01-26T11:33:03.058Z,81.37
2019-01-26T11:37:08.404Z,95.42
2019-01-26T11:41:15.291Z,85.32
2019-01-26T11:45:38.562Z,89.37
2019-01-26T11:49:46.677Z,87.62
2019-01-26T11:53:53.152Z,76.33
2019-01-26T11:57:58.602Z,62.65
2019-01-26T12:02:05.699Z,65.45
2019-01-26T12:06:12.751Z,61.33
2019-01-26T12:10:18.370Z,44.73
2019-01-26T12:14:23.799Z,48.90
2019-01-26T12:18:29.358Z,40.67
2019-01-26T12:22:34.806Z,33.58
2019-01-26T12:26:40.263Z,37.48
2019-01-26T12:30:46.018Z,33.42
2019-01-26T12:34:52.956Z,33.08
2019-01-26T12:38:58.459Z,29.15
2019-01-26T12:43:05.407Z,28.70
2019-01-26T12:47:16.940Z,27.52
2019-01-26T12:51:17.891Z,27.90
2019-01-26T12:55:23.444Z,23.30
2019-01-26T12:59:28.901Z,23.05
2019-01-26T13:03:35.997Z,23.57
2019-01-26T13:07:41.558Z,25.77
2019-01-26T13:11:47.611Z,21.15
2019-01-26T13:15:53.198Z,21.05
2019-01-26T13:19:58.769Z,22.27
2019-01-26T13:24:04.687Z,19.80
2019-01-26T13:28:11.298Z,23.25
2019-01-26T13:32:16.821Z,23.92
2019-01-26T13:36:22.582Z,23.50
2019-01-26T13:40:31.036Z,23.32
2019-01-26T13:44:36.662Z,31.03
2019-01-26T13:48:42.317Z,25.85
2019-01-26T13:52:49.105Z,30.90
2019-01-26T13:56:54.694Z,32.28
2019-01-26T14:01:01.242Z,36.30
2019-01-26T14:05:06.909Z,37.30
2019-01-26T14:09:12.448Z,34.20
2019-01-26T14:13:17.902Z,34.03
2019-01-26T14:19:34.973Z,32.90
2019-01-26T14:24:00.258Z,31.95
2019-01-26T14:28:24.504Z,33.35
2019-01-26T14:32:52.552Z,33.00
2019-01-26T14:37:15.092Z,36.35
2019-01-26T14:41:39.484Z,33.28
2019-01-26T14:46:03.719Z,30.43
2019-01-26T14:50:29.609Z,29.00
2019-01-26T14:54:53.798Z,27.15
2019-01-26T14:59:18.299Z,25.62
2019-01-26T15:03:45.357Z,22.40
2019-01-26T15:08:09.877Z,24.23
2019-01-26T15:12:34.152Z,25.52
2019-01-26T15:17:00.597Z,25.02
2019-01-26T15:21:26.331Z,26.00
2019-01-26T15:25:52.054Z,26.80
2019-01-26T15:30:20.671Z,26.82
2019-01-26T15:34:44.947Z,25.80
2019-01-26T15:39:09.184Z,26.70
2019-01-26T15:43:34.044Z,25.70
2019-01-26T15:47:58.169Z,27.80
2019-01-26T15:52:24.153Z,31.20
2019-01-26T15:56:49.588Z,28.47
2019-01-26T16:01:14.086Z,30.77
2019-01-26T16:05:38.543Z,27.25
2019-01-26T16:10:06.493Z,23.25
2019-01-26T16:14:30.866Z,27.85
2019-01-26T16:18:55.465Z,29.87
2019-01-26T16:23:21.190Z,24.50
2019-01-26T16:27:45.485Z,26.42
2019-01-26T16:32:09.782Z,25.08
2019-01-26T16:36:33.774Z,35.90
2019-01-26T16:40:59.086Z,33.15
2019-01-26T16:45:29.010Z,30.92
2019-01-26T16:49:53.408Z,33.40
2019-01-26T16:54:17.292Z,37.15
2019-01-26T16:58:41.201Z,29.65
2019-01-26T17:03:05.300Z,31.55
2019-01-26T17:07:30.380Z,33.05
2019-01-26T17:11:55.493Z,29.00
2019-01-26T17:16:20.097Z,27.98
2019-01-26T17:20:44.288Z,33.55
2019-01-26T17:25:08.583Z,52.45
2019-01-26T17:29:32.795Z,38.25
2019-01-26T17:33:56.862Z,44.93
2019-01-26T17:38:21.175Z,42.85
2019-01-26T17:42:45.352Z,43.75
2019-01-26T17:47:10.004Z,42.58
2019-01-26T17:51:35.885Z,46.40
2019-01-26T17:56:00.282Z,48.78
2019-01-26T18:00:35.638Z,44.58
2019-01-26T18:05:02.415Z,43.68
2019-01-26T18:09:28.243Z,34.80
2019-01-26T18:13:53.130Z,38.40
2019-01-26T18:18:18.830Z,41.73
2019-01-26T18:22:43.455Z,36.95
2019-01-26T18:27:08.946Z,37.83
2019-01-26T18:31:33.125Z,43.60
2019-01-26T18:35:59.926Z,39.60
2019-01-26T18:40:32.613Z,36.70
2019-01-26T18:44:59.160Z,40.98
2019-01-26T18:49:23.279Z,38.92
2019-01-26T18:53:47.442Z,33.10
2019-01-26T18:58:11.638Z,35.30
2019-01-26T19:02:35.928Z,32.58
2019-01-26T19:07:00.428Z,31.57
2019-01-26T19:11:25.029Z,31.70
2019-01-26T19:15:50.951Z,29.18
2019-01-26T19:20:15.771Z,28.47
2019-01-26T19:24:40.472Z,26.23
2019-01-26T19:29:04.766Z,27.95
2019-01-26T19:33:29.196Z,27.45
2019-01-26T19:37:53.356Z,92.12
2019-01-26T19:42:17.549Z,30.30
2019-01-26T19:46:41.431Z,30.10
2019-01-26T19:51:09.956Z,30.62
2019-01-26T19:55:32.276Z,29.37
2019-01-26T19:59:57.695Z,29.52
2019-01-26T20:04:21.927Z,29.75
2019-01-26T20:08:48.988Z,24.87
2019-01-26T20:13:13.240Z,29.37
2019-01-26T20:17:37.329Z,32.33
2019-01-26T20:22:04.167Z,26.68
2019-01-26T20:26:29.087Z,25.62
2019-01-26T20:30:57.078Z,28.38
2019-01-26T20:35:22.416Z,23.98
2019-01-26T20:39:47.955Z,24.75
2019-01-26T20:44:12.414Z,22.13
2019-01-26T20:48:36.607Z,22.25
2019-01-26T20:53:01.413Z,21.05
2019-01-26T20:57:27.142Z,21.30
2019-01-26T21:01:51.539Z,20.55
2019-01-26T21:06:15.627Z,17.20
2019-01-26T21:10:41.405Z,15.15
2019-01-26T21:15:07.998Z,17.57
2019-01-26T21:19:32.405Z,17.23
2019-01-26T21:23:56.915Z,15.13
2019-01-26T21:28:21.232Z,17.62
2019-01-26T21:32:46.103Z,11.63
2019-01-26T21:37:10.439Z,11.95
2019-01-26T21:41:36.379Z,10.78
2019-01-26T21:46:00.668Z,10.75
2019-01-26T21:50:27.488Z,10.63
2019-01-26T21:54:51.980Z,9.65
2019-01-26T21:59:16.684Z,9.20
2019-01-26T22:03:40.875Z,10.32
2019-01-26T22:08:04.863Z,9.53
2019-01-26T22:12:28.750Z,23.30
2019-01-26T22:16:52.837Z,7.67
2019-01-26T22:21:17.028Z,9.68
2019-01-26T22:25:40.912Z,8.28
2019-01-26T22:30:11.148Z,9.03
2019-01-26T22:34:36.772Z,9.78
2019-01-26T22:39:01.596Z,8.10
2019-01-26T22:43:27.662Z,9.00
2019-01-26T22:47:52.013Z,9.58
2019-01-26T22:52:15.896Z,10.68
2019-01-26T22:56:41.103Z,9.20
2019-01-26T23:01:12.403Z,10.43
2019-01-26T23:05:44.035Z,10.05
2019-01-26T23:10:35.877Z,12.65
2019-01-26T23:15:36.624Z,13.75
2019-01-26T23:20:03.992Z,19.67
2019-01-26T23:24:50.507Z,21.80
2019-01-26T23:29:17.873Z,21.30
2019-01-26T23:33:43.190Z,25.75
2019-01-26T23:38:07.282Z,28.62
2019-01-26T23:42:31.677Z,33.08
2019-01-26T23:46:55.870Z,33.85
2019-01-26T23:51:19.857Z,37.75
2019-01-26T23:55:43.742Z,38.78
